createdAt,value
2019-06-07T00:01:44.840Z,12.43
2019-06-07T00:04:14.180Z,12.63
2019-06-07T00:06:43.651Z,13.00
2019-06-07T00:09:14.535Z,12.80
2019-06-07T00:11:42.174Z,12.80
2019-06-07T00:14:13.097Z,12.77
2019-06-07T00:16:41.022Z,13.57
2019-06-07T00:19:09.721Z,13.30
2019-06-07T00:22:13.791Z,14.10
2019-06-07T00:24:09.413Z,13.73
2019-06-07T00:26:57.114Z,13.60
2019-06-07T00:29:09.173Z,13.77
2019-06-07T00:31:38.542Z,13.20
2019-06-07T00:34:06.949Z,13.73
2019-06-07T00:36:35.346Z,12.27
2019-06-07T00:39:06.027Z,12.60
2019-06-07T00:41:34.460Z,12.70
2019-06-07T00:44:02.935Z,13.37
2019-06-07T00:46:31.326Z,12.70
2019-06-07T00:48:59.896Z,13.60
2019-06-07T00:51:49.177Z,13.00
2019-06-07T00:53:58.419Z,13.13
2019-06-07T00:56:27.086Z,13.83
2019-06-07T00:59:10.665Z,12.83
2019-06-07T01:01:25.775Z,13.27
2019-06-07T01:03:54.171Z,13.20
2019-06-07T01:06:24.810Z,14.23
2019-06-07T01:08:53.297Z,12.80
2019-06-07T01:11:24.071Z,12.87
2019-06-07T01:13:51.861Z,13.87
2019-06-07T01:16:22.250Z,13.93
2019-06-07T01:18:51.301Z,12.80
2019-06-07T01:21:23.809Z,13.50
2019-06-07T01:24:12.075Z,13.00
2019-06-07T01:26:22.407Z,12.80
2019-06-07T01:28:50.594Z,12.70
2019-06-07T01:31:21.088Z,13.77
2019-06-07T01:33:51.287Z,14.03
2019-06-07T01:36:20.072Z,13.67
2019-06-07T01:38:49.594Z,12.83
2019-06-07T01:41:21.550Z,14.13
2019-06-07T01:43:48.114Z,13.47
2019-06-07T01:46:16.526Z,12.63
2019-06-07T01:48:49.618Z,14.30
2019-06-07T01:51:15.050Z,13.50
2019-06-07T01:53:43.450Z,13.57
2019-06-07T01:56:11.846Z,13.83
2019-06-07T01:58:40.253Z,13.00
2019-06-07T02:01:08.704Z,13.30
2019-06-07T02:03:37.104Z,13.20
2019-06-07T02:06:05.495Z,13.70
2019-06-07T02:08:34.562Z,12.70
2019-06-07T02:11:03.146Z,12.90
2019-06-07T02:13:31.539Z,14.20
2019-06-07T02:16:00.213Z,13.57
2019-06-07T02:18:33.316Z,13.57
2019-06-07T02:20:58.750Z,12.97
2019-06-07T02:23:30.880Z,13.90
2019-06-07T02:25:57.356Z,13.37
2019-06-07T02:28:34.121Z,13.50
2019-06-07T02:31:00.008Z,14.50
2019-06-07T02:33:29.017Z,13.20
2019-06-07T02:35:56.299Z,13.37
2019-06-07T02:38:27.654Z,13.33
2019-06-07T02:40:55.102Z,13.43
2019-06-07T02:43:25.027Z,13.37
2019-06-07T02:45:53.603Z,13.30
2019-06-07T02:48:24.544Z,14.37
2019-06-07T02:50:53.513Z,15.00
2019-06-07T02:53:25.079Z,14.03
2019-06-07T02:56:35.125Z,13.20
2019-06-07T02:58:25.053Z,13.17
2019-06-07T03:01:06.697Z,13.53
2019-06-07T03:03:24.539Z,14.07
2019-06-07T03:05:53.138Z,13.30
2019-06-07T03:08:21.526Z,14.20
2019-06-07T03:10:50.899Z,13.93
2019-06-07T03:13:22.024Z,14.93
2019-06-07T03:15:52.753Z,15.10
2019-06-07T03:18:36.396Z,13.30
2019-06-07T03:21:08.626Z,13.33
2019-06-07T03:23:39.043Z,14.67
2019-06-07T03:26:07.299Z,14.57
2019-06-07T03:28:37.499Z,14.03
2019-06-07T03:31:05.896Z,15.20
2019-06-07T03:33:41.582Z,14.47
2019-06-07T03:36:22.731Z,14.07
2019-06-07T03:38:36.985Z,14.50
2019-06-07T03:41:05.065Z,13.93
2019-06-07T03:43:37.785Z,13.67
2019-06-07T03:46:06.739Z,14.70
2019-06-07T03:48:36.392Z,14.80
2019-06-07T03:51:23.625Z,14.10
2019-06-07T03:53:37.271Z,12.33
2019-06-07T03:56:05.997Z,14.27
2019-06-07T03:58:45.662Z,14.10
2019-06-07T04:01:04.628Z,13.73
2019-06-07T04:03:43.583Z,12.93
2019-06-07T04:06:03.621Z,13.43
2019-06-07T04:08:34.409Z,13.70
2019-06-07T04:11:02.153Z,12.77
2019-06-07T04:13:34.814Z,11.93
2019-06-07T04:16:00.677Z,12.40
2019-06-07T04:18:30.280Z,12.90
2019-06-07T04:21:05.328Z,11.87
2019-06-07T04:23:38.012Z,13.60
2019-06-07T04:26:03.916Z,12.70
2019-06-07T04:29:25.980Z,13.17
2019-06-07T04:31:03.085Z,13.17
2019-06-07T04:33:34.047Z,11.97
2019-06-07T04:36:03.715Z,13.10
2019-06-07T04:38:39.234Z,14.43
2019-06-07T04:41:04.876Z,13.40
2019-06-07T04:43:35.626Z,13.50
2019-06-07T04:46:04.857Z,13.63
2019-06-07T04:48:36.022Z,15.00
2019-06-07T04:51:05.081Z,13.13
2019-06-07T04:53:35.357Z,12.87
2019-06-07T04:56:03.794Z,13.50
2019-06-07T04:58:33.361Z,12.60
2019-06-07T05:01:03.737Z,13.20
2019-06-07T05:03:37.056Z,13.90
2019-06-07T05:06:02.190Z,13.47
2019-06-07T05:08:33.250Z,13.60
2019-06-07T05:11:00.720Z,14.40
2019-06-07T05:13:31.521Z,14.40
2019-06-07T05:15:59.326Z,14.00
2019-06-07T05:18:27.730Z,13.77
2019-06-07T05:20:56.140Z,14.63
2019-06-07T05:26:01.039Z,14.53
2019-06-07T05:28:29.983Z,14.70
2019-06-07T05:31:05.237Z,14.70
2019-06-07T05:33:36.368Z,15.27
2019-06-07T05:36:02.466Z,15.47
2019-06-07T05:38:31.141Z,15.63
2019-06-07T05:40:59.638Z,16.90
2019-06-07T05:43:35.076Z,16.37
2019-06-07T05:46:01.625Z,16.53
2019-06-07T05:48:30.036Z,16.07
2019-06-07T05:50:58.430Z,17.03
2019-06-07T05:53:27.071Z,15.20
2019-06-07T05:55:55.510Z,16.53
2019-06-07T05:58:23.866Z,16.90
2019-06-07T06:00:52.265Z,16.70
2019-06-07T06:03:20.711Z,15.70
2019-06-07T06:05:54.913Z,16.10
2019-06-07T06:08:19.309Z,15.87
2019-06-07T06:10:48.893Z,16.00
2019-06-07T06:13:17.790Z,16.47
2019-06-07T06:16:00.584Z,14.57
2019-06-07T06:18:16.554Z,15.73
2019-06-07T06:21:09.466Z,16.17
2019-06-07T06:23:15.118Z,15.93
2019-06-07T06:25:52.583Z,16.10
2019-06-07T06:28:15.881Z,14.97
2019-06-07T06:30:47.043Z,16.30
2019-06-07T06:33:30.737Z,15.10
2019-06-07T06:35:47.411Z,14.57
2019-06-07T06:38:14.382Z,14.90
2019-06-07T06:40:46.199Z,14.97
2019-06-07T06:43:13.260Z,15.33
2019-06-07T06:45:42.945Z,14.57
2019-06-07T06:48:11.896Z,15.23
2019-06-07T06:50:41.106Z,14.23
2019-06-07T06:53:09.541Z,14.77
2019-06-07T06:55:39.087Z,12.90
2019-06-07T06:58:07.530Z,13.93
2019-06-07T07:00:59.363Z,14.10
2019-06-07T07:05:54.683Z,13.30
2019-06-07T07:08:21.567Z,13.10
2019-06-07T07:10:53.230Z,13.70
2019-06-07T07:13:20.135Z,12.30
2019-06-07T07:15:55.167Z,13.27
2019-06-07T07:18:19.261Z,11.87
2019-06-07T07:20:50.412Z,12.63
2019-06-07T07:23:18.065Z,11.73
2019-06-07T07:25:51.708Z,11.90
2019-06-07T07:28:16.598Z,11.50
2019-06-07T07:30:54.477Z,12.03
2019-06-07T07:33:20.431Z,11.13
2019-06-07T07:36:10.768Z,11.47
2019-06-07T07:38:19.924Z,12.10
2019-06-07T07:41:01.567Z,11.20
2019-06-07T07:43:19.052Z,11.67
2019-06-07T07:45:55.029Z,12.00
2019-06-07T07:48:18.656Z,13.17
2019-06-07T07:50:49.740Z,12.60
2019-06-07T07:53:17.642Z,11.80
2019-06-07T07:55:51.544Z,11.40
2019-06-07T07:58:16.230Z,11.03
2019-06-07T08:01:00.247Z,11.23
2019-06-07T08:03:15.036Z,10.93
2019-06-07T08:05:45.611Z,12.00
2019-06-07T08:08:13.619Z,11.20
2019-06-07T08:10:42.097Z,11.70
2019-06-07T08:13:27.630Z,12.10
2019-06-07T08:15:40.630Z,11.93
2019-06-07T08:18:09.262Z,11.57
2019-06-07T08:20:37.883Z,10.63
2019-06-07T08:23:06.344Z,11.90
2019-06-07T08:25:34.753Z,11.97
2019-06-07T08:28:03.440Z,11.00
2019-06-07T08:30:52.440Z,11.03
2019-06-07T08:33:24.648Z,12.10
2019-06-07T08:40:32.777Z,12.13
2019-06-07T08:43:15.250Z,11.37
2019-06-07T08:45:31.420Z,11.20
2019-06-07T08:48:05.410Z,11.47
2019-06-07T08:50:30.020Z,10.83
2019-06-07T08:53:10.636Z,10.70
2019-06-07T08:55:28.577Z,10.20
2019-06-07T08:58:03.413Z,10.40
2019-06-07T09:00:45.612Z,9.27
2019-06-07T09:03:02.832Z,9.53
2019-06-07T09:05:28.053Z,10.77
2019-06-07T09:08:21.735Z,10.00
2019-06-07T09:10:26.834Z,8.90
2019-06-07T09:13:02.990Z,10.13
2019-06-07T09:15:25.721Z,8.70
2019-06-07T09:18:34.898Z,9.67
2019-06-07T09:20:36.219Z,8.77
2019-06-07T09:22:59.037Z,9.07
2019-06-07T09:25:26.863Z,9.03
2019-06-07T09:27:59.195Z,8.53
2019-06-07T09:30:46.828Z,8.97
2019-06-07T09:33:15.611Z,7.60
2019-06-07T09:35:44.503Z,7.47
2019-06-07T09:38:24.997Z,8.50
2019-06-07T09:40:43.250Z,7.97
2019-06-07T09:45:42.161Z,8.07
2019-06-07T09:48:16.057Z,8.00
2019-06-07T09:50:41.029Z,8.17
2019-06-07T09:53:20.996Z,8.30
2019-06-07T09:55:39.717Z,8.63
2019-06-07T09:58:48.622Z,7.90
2019-06-07T10:00:41.649Z,8.10
2019-06-07T10:03:17.817Z,8.27
2019-06-07T10:05:39.256Z,7.60
2019-06-07T10:08:25.644Z,8.40
2019-06-07T10:10:37.868Z,7.70
2019-06-07T10:13:06.606Z,7.80
2019-06-07T10:15:36.466Z,8.27
2019-06-07T10:18:05.278Z,7.10
2019-06-07T10:20:33.684Z,7.73
2019-06-07T10:23:03.714Z,6.70
2019-06-07T10:25:32.222Z,7.27
2019-06-07T10:28:01.857Z,8.20
2019-06-07T10:30:30.432Z,7.70
2019-06-07T10:32:59.950Z,6.80
2019-06-07T10:35:29.087Z,7.80
2019-06-07T10:37:58.334Z,8.73
2019-06-07T10:40:26.825Z,8.23
2019-06-07T10:42:55.207Z,7.87
2019-06-07T10:45:23.616Z,7.90
2019-06-07T10:47:51.998Z,7.97
2019-06-07T10:50:21.940Z,8.33
2019-06-07T10:52:50.610Z,7.53
2019-06-07T10:55:19.061Z,9.70
2019-06-07T10:57:47.444Z,7.97
2019-06-07T11:00:17.853Z,8.20
2019-06-07T11:02:46.612Z,8.43
2019-06-07T11:05:15.382Z,8.00
2019-06-07T11:07:43.777Z,8.80
2019-06-07T11:10:17.786Z,9.07
2019-06-07T11:12:42.729Z,8.93
2019-06-07T11:15:12.864Z,7.73
2019-06-07T11:17:41.829Z,8.07
2019-06-07T11:20:12.540Z,7.73
2019-06-07T11:22:41.168Z,8.27
2019-06-07T11:25:11.110Z,8.60
2019-06-07T11:27:40.604Z,7.10
2019-06-07T11:30:30.820Z,7.63
2019-06-07T11:33:00.851Z,7.00
2019-06-07T11:35:32.160Z,7.43
2019-06-07T11:38:06.561Z,6.93
2019-06-07T11:40:36.151Z,7.80
2019-06-07T11:43:04.856Z,7.73
2019-06-07T11:45:33.561Z,7.93
2019-06-07T11:48:01.987Z,7.30
2019-06-07T11:50:30.630Z,8.00
2019-06-07T11:52:59.040Z,8.03
2019-06-07T11:55:27.446Z,8.97
2019-06-07T11:57:56.100Z,7.53
2019-06-07T12:00:26.062Z,7.67
2019-06-07T12:02:57.370Z,8.00
2019-06-07T12:05:26.045Z,6.97
2019-06-07T12:07:57.040Z,6.83
2019-06-07T12:10:24.958Z,7.27
2019-06-07T12:12:53.340Z,6.90
2019-06-07T12:15:23.883Z,6.97
2019-06-07T12:17:52.301Z,7.27
2019-06-07T12:20:22.326Z,6.73
2019-06-07T12:22:51.260Z,8.03
2019-06-07T12:25:24.635Z,7.93
2019-06-07T12:27:53.151Z,7.40
2019-06-07T12:30:27.568Z,6.90
2019-06-07T12:32:55.437Z,7.77
2019-06-07T12:35:24.179Z,7.83
2019-06-07T12:37:53.049Z,7.93
2019-06-07T12:40:30.265Z,7.13
2019-06-07T12:42:54.847Z,7.13
2019-06-07T12:45:44.007Z,8.60
2019-06-07T12:47:53.636Z,7.10
2019-06-07T12:50:23.752Z,7.53
2019-06-07T12:52:52.866Z,7.07
2019-06-07T12:55:24.868Z,7.70
2019-06-07T12:57:53.344Z,7.93
2019-06-07T13:00:22.665Z,7.60
2019-06-07T13:02:51.273Z,7.50
2019-06-07T13:05:20.023Z,8.03
2019-06-07T13:07:48.939Z,7.70
2019-06-07T13:10:18.060Z,7.47
2019-06-07T13:12:47.194Z,7.70
2019-06-07T13:15:18.779Z,7.80
2019-06-07T13:17:46.382Z,8.50
2019-06-07T13:20:18.100Z,7.80
2019-06-07T13:22:46.701Z,8.17
2019-06-07T13:25:16.307Z,8.37
2019-06-07T13:27:45.107Z,7.63
2019-06-07T13:30:14.734Z,8.87
2019-06-07T13:32:43.059Z,8.77
2019-06-07T13:35:13.610Z,7.10
2019-06-07T13:37:42.518Z,8.00
2019-06-07T13:40:12.868Z,7.83
2019-06-07T13:42:42.558Z,8.20
2019-06-07T13:45:11.579Z,7.00
2019-06-07T13:47:40.308Z,7.57
2019-06-07T13:50:10.828Z,7.70
2019-06-07T13:52:40.018Z,7.97
2019-06-07T13:55:09.622Z,8.00
2019-06-07T13:57:38.122Z,7.80
2019-06-07T14:00:11.670Z,8.03
2019-06-07T14:02:40.311Z,7.57
2019-06-07T14:05:09.423Z,7.90
2019-06-07T14:07:37.883Z,8.27
2019-06-07T14:10:11.417Z,8.03
2019-06-07T14:12:38.714Z,8.13
2019-06-07T14:15:10.438Z,7.93
2019-06-07T14:17:38.661Z,7.40
2019-06-07T14:20:09.821Z,8.10
2019-06-07T14:22:38.992Z,7.90
2019-06-07T14:25:09.735Z,8.43
2019-06-07T14:27:38.622Z,8.30
2019-06-07T14:30:11.150Z,8.20
2019-06-07T14:32:41.196Z,8.63
2019-06-07T14:35:15.122Z,8.30
2019-06-07T14:37:43.481Z,8.10
2019-06-07T14:40:12.884Z,8.00
2019-06-07T14:42:41.292Z,7.53
2019-06-07T14:45:11.126Z,7.60
2019-06-07T14:47:39.999Z,8.70
2019-06-07T14:50:11.178Z,8.17
2019-06-07T14:52:39.573Z,7.60
2019-06-07T14:55:08.938Z,8.90
2019-06-07T14:57:38.185Z,7.67
2019-06-07T15:00:11.504Z,7.70
2019-06-07T15:02:39.990Z,8.50
2019-06-07T15:05:09.954Z,8.67
2019-06-07T15:07:40.471Z,9.30
2019-06-07T15:10:10.356Z,8.27
2019-06-07T15:12:40.005Z,9.40
2019-06-07T15:15:09.586Z,7.70
2019-06-07T15:17:39.199Z,8.80
2019-06-07T15:20:09.082Z,9.70
2019-06-07T15:22:38.705Z,9.00
2019-06-07T15:25:09.055Z,9.00
2019-06-07T15:27:38.369Z,8.00
2019-06-07T15:30:10.843Z,9.00
2019-06-07T15:32:39.958Z,9.53
2019-06-07T15:35:09.352Z,8.63
2019-06-07T15:37:39.258Z,8.63
2019-06-07T15:40:08.636Z,8.17
2019-06-07T15:42:47.620Z,9.00
2019-06-07T15:45:07.636Z,10.07
2019-06-07T15:47:38.338Z,10.50
2019-06-07T15:50:09.314Z,9.40
2019-06-07T15:52:38.326Z,9.73
2019-06-07T15:55:09.025Z,10.67
2019-06-07T15:57:37.470Z,10.63
2019-06-07T16:00:08.871Z,12.00
2019-06-07T16:02:37.621Z,12.27
2019-06-07T16:05:06.895Z,9.87
2019-06-07T16:07:36.264Z,10.50
2019-06-07T16:10:07.154Z,11.13
2019-06-07T16:12:36.750Z,10.33
2019-06-07T16:15:07.387Z,10.30
2019-06-07T16:17:37.269Z,9.83
2019-06-07T16:20:07.344Z,10.60
2019-06-07T16:22:35.912Z,10.30
2019-06-07T16:25:06.558Z,10.67
2019-06-07T16:27:36.568Z,8.93
2019-06-07T16:30:09.684Z,9.30
2019-06-07T16:32:39.360Z,8.60
2019-06-07T16:35:09.525Z,9.47
2019-06-07T16:37:40.441Z,8.50
2019-06-07T16:40:10.553Z,8.47
2019-06-07T16:42:40.609Z,8.27
2019-06-07T16:45:10.735Z,8.70
2019-06-07T16:47:41.223Z,8.10
2019-06-07T16:50:10.481Z,7.90
2019-06-07T16:52:39.216Z,8.37
2019-06-07T16:55:23.974Z,7.67
2019-06-07T16:57:52.457Z,7.60
2019-06-07T17:00:21.956Z,7.40
2019-06-07T17:02:52.331Z,7.50
2019-06-07T17:05:20.998Z,7.10
2019-06-07T17:07:49.381Z,6.90
2019-06-07T17:10:19.790Z,6.20
2019-06-07T17:12:48.940Z,6.20
2019-06-07T17:15:19.460Z,6.77
2019-06-07T17:17:49.313Z,7.00
2019-06-07T17:20:18.264Z,5.97
2019-06-07T17:22:47.463Z,5.47
2019-06-07T17:25:16.630Z,6.03
2019-06-07T17:27:46.340Z,6.23
2019-06-07T17:30:16.918Z,6.00
2019-06-07T17:32:56.277Z,5.73
2019-06-07T17:35:15.491Z,5.60
2019-06-07T17:37:45.757Z,5.90
2019-06-07T17:40:16.348Z,6.20
2019-06-07T17:42:45.003Z,6.40
2019-06-07T17:45:15.640Z,6.70
2019-06-07T17:47:44.028Z,6.13
2019-06-07T17:50:12.750Z,6.00
2019-06-07T17:52:41.833Z,6.40
2019-06-07T17:55:11.114Z,6.23
2019-06-07T17:57:39.659Z,6.20
2019-06-07T18:02:42.533Z,6.70
2019-06-07T18:05:13.364Z,6.80
2019-06-07T18:07:43.865Z,6.70
2019-06-07T18:10:13.010Z,6.67
2019-06-07T18:12:41.537Z,7.03
2019-06-07T18:15:13.512Z,6.60
2019-06-07T18:17:41.932Z,6.63
2019-06-07T18:20:10.962Z,6.80
2019-06-07T18:22:39.360Z,6.50
2019-06-07T18:25:08.881Z,6.20
2019-06-07T18:27:37.451Z,6.40
2019-06-07T18:30:11.713Z,6.67
2019-06-07T18:32:39.690Z,6.40
2019-06-07T18:35:08.517Z,6.53
2019-06-07T18:37:36.910Z,6.80
2019-06-07T18:40:06.465Z,6.30
2019-06-07T18:42:35.160Z,6.57
2019-06-07T18:45:05.536Z,6.87
2019-06-07T18:47:33.965Z,6.00
2019-06-07T18:50:02.671Z,5.93
2019-06-07T18:52:32.720Z,6.23
2019-06-07T18:55:01.106Z,6.40
2019-06-07T18:57:29.754Z,6.23
2019-06-07T18:59:58.774Z,5.70
2019-06-07T19:02:27.307Z,5.30
2019-06-07T19:04:56.382Z,5.50
2019-06-07T19:07:24.865Z,5.50
2019-06-07T19:09:53.268Z,6.00
2019-06-07T19:12:21.656Z,6.57
2019-06-07T19:14:53.308Z,6.57
2019-06-07T19:17:23.838Z,6.43
2019-06-07T19:19:58.307Z,6.30
2019-06-07T19:22:26.833Z,7.30
2019-06-07T19:24:56.898Z,6.47
2019-06-07T19:27:25.869Z,7.50
2019-06-07T19:29:54.676Z,6.23
2019-06-07T19:32:23.397Z,5.97
2019-06-07T19:34:53.173Z,6.20
2019-06-07T19:37:27.875Z,5.70
2019-06-07T19:39:58.029Z,6.80
2019-06-07T19:42:26.457Z,6.10
2019-06-07T19:45:00.883Z,5.70
2019-06-07T19:47:24.961Z,6.17
2019-06-07T19:49:54.843Z,6.03
2019-06-07T19:52:23.759Z,6.40
2019-06-07T19:54:53.747Z,6.33
2019-06-07T19:57:22.676Z,6.37
2019-06-07T19:59:51.071Z,6.60
2019-06-07T20:02:19.446Z,5.80
2019-06-07T20:04:47.863Z,6.53
2019-06-07T20:07:16.517Z,6.93
2019-06-07T20:09:44.898Z,6.37
2019-06-07T20:12:13.314Z,7.10
2019-06-07T20:14:41.716Z,6.40
2019-06-07T20:17:10.088Z,6.20
2019-06-07T20:19:38.478Z,6.50
2019-06-07T20:22:07.226Z,6.63
2019-06-07T20:24:38.057Z,6.23
2019-06-07T20:27:05.738Z,5.93
2019-06-07T20:29:34.130Z,6.00
2019-06-07T20:32:02.578Z,6.63
2019-06-07T20:34:30.936Z,5.60
2019-06-07T20:37:03.907Z,5.80
2019-06-07T20:39:31.850Z,6.20
2019-06-07T20:42:01.298Z,6.30
2019-06-07T20:44:29.788Z,6.30
2019-06-07T20:46:58.182Z,6.80
2019-06-07T20:49:26.917Z,5.90
2019-06-07T20:51:55.338Z,6.87
2019-06-07T20:54:23.785Z,6.50
2019-06-07T20:56:52.163Z,6.67
2019-06-07T20:59:20.578Z,6.20
2019-06-07T21:01:49.024Z,6.50
2019-06-07T21:04:17.730Z,6.30
2019-06-07T21:06:46.950Z,5.87
2019-06-07T21:09:15.371Z,6.00
2019-06-07T21:11:44.002Z,5.97
2019-06-07T21:14:12.688Z,6.13
2019-06-07T21:16:41.088Z,5.90
2019-06-07T21:19:10.465Z,5.60
2019-06-07T21:21:38.942Z,6.30
2019-06-07T21:24:08.699Z,6.60
2019-06-07T21:26:37.211Z,6.67
2019-06-07T21:29:07.098Z,6.23
2019-06-07T21:31:35.684Z,5.80
2019-06-07T21:34:07.618Z,6.00
2019-06-07T21:36:34.576Z,6.10
2019-06-07T21:39:04.081Z,6.37
2019-06-07T21:41:32.780Z,6.10
2019-06-07T21:44:02.377Z,6.00
2019-06-07T21:46:31.288Z,6.60
2019-06-07T21:48:59.978Z,6.30
2019-06-07T21:51:28.390Z,6.43
2019-06-07T21:53:57.022Z,6.67
2019-06-07T21:56:25.383Z,6.73
2019-06-07T21:58:53.778Z,7.47
2019-06-07T22:01:23.227Z,7.53
2019-06-07T22:03:51.624Z,6.53
2019-06-07T22:06:20.193Z,6.63
2019-06-07T22:08:49.033Z,6.40
2019-06-07T22:11:22.082Z,7.00
2019-06-07T22:13:50.763Z,6.67
2019-06-07T22:16:28.591Z,6.80
2019-06-07T22:18:49.508Z,6.70
2019-06-07T22:21:17.904Z,6.93
2019-06-07T22:23:46.554Z,6.50
2019-06-07T22:26:15.657Z,7.03
2019-06-07T22:28:44.035Z,7.00
2019-06-07T22:31:12.907Z,7.13
2019-06-07T22:33:41.308Z,6.83
2019-06-07T22:36:10.805Z,6.90
2019-06-07T22:38:39.377Z,6.83
2019-06-07T22:41:09.744Z,6.93
2019-06-07T22:43:38.283Z,7.03
2019-06-07T22:46:06.829Z,7.10
2019-06-07T22:48:35.443Z,6.77
2019-06-07T22:51:07.713Z,7.57
2019-06-07T22:53:37.591Z,6.87
2019-06-07T22:56:07.815Z,7.57
2019-06-07T22:58:36.204Z,7.23
2019-06-07T23:01:04.610Z,6.67
2019-06-07T23:03:33.004Z,7.20
2019-06-07T23:06:01.442Z,7.37
2019-06-07T23:08:30.155Z,7.17
2019-06-07T23:10:58.832Z,6.73
2019-06-07T23:13:27.231Z,6.33
2019-06-07T23:15:55.906Z,6.90
2019-06-07T23:18:24.289Z,6.00
2019-06-07T23:20:52.686Z,7.00
2019-06-07T23:23:21.059Z,7.60
2019-06-07T23:25:49.461Z,6.67
2019-06-07T23:28:18.722Z,6.90
2019-06-07T23:30:47.133Z,7.67
2019-06-07T23:33:16.750Z,7.30
2019-06-07T23:35:45.604Z,7.20
2019-06-07T23:38:14.934Z,7.10
2019-06-07T23:40:43.427Z,7.10
2019-06-07T23:43:13.382Z,7.77
2019-06-07T23:45:41.799Z,6.60
2019-06-07T23:48:11.226Z,6.80
2019-06-07T23:50:39.685Z,7.37
2019-06-07T23:53:08.310Z,7.40
2019-06-07T23:55:37.008Z,12.40
2019-06-07T23:58:05.387Z,6.70
